Time;durP1;ratioP1;P1;durP2;ratioP2;P2;SDS_P1;SDS_P2;PMS_P1;PMS_P2;Temp;Humidity;BMP_temperature;BMP_pressure;BME280_temperature;BME280_humidity;BME280_pressure;Samples;Min_cycle;Max_cycle;Signal;HPM_P1;HPM_P2
2023/02/26 00:00:00;;;;;;;9.68;2.45;;;;;;;9.19;43.08;97542.03;5091631;28;20066;-46
2023/02/26 00:02:29;;;;;;;11.18;3.10;;;;;;;9.28;42.97;97539.13;5091781;28;20438;-46
2023/02/26 00:04:56;;;;;;;10.23;2.75;;;;;;;9.22;42.90;97535.56;5091110;28;20112;-46
2023/02/26 00:07:26;;;;;;;9.60;3.13;;;;;;;9.39;43.15;97543.59;5070025;28;20038;-46
2023/02/26 00:09:54;;;;;;;62.30;53.28;;;;;;;9.39;42.25;97541.78;5088133;28;20057;-46
2023/02/26 00:12:21;;;;;;;13.60;6.47;;;;;;;9.32;42.41;97551.53;5072355;28;20083;-46
2023/02/26 00:14:48;;;;;;;11.77;3.63;;;;;;;9.32;42.96;97542.91;5073725;28;20506;-46
2023/02/26 00:17:37;;;;;;;8.88;2.53;;;;;;;9.44;42.70;97540.31;5094966;28;20103;-46
2023/02/26 00:20:13;;;;;;;10.20;3.45;;;;;;;9.33;42.64;97536.63;5075316;28;20094;-46
2023/02/26 00:22:55;;;;;;;12.68;3.03;;;;;;;9.20;42.84;97542.81;5095233;28;20016;-46
2023/02/26 00:25:35;;;;;;;14.77;3.38;;;;;;;9.19;43.25;97543.84;5095139;28;20025;-47
2023/02/26 00:28:01;;;;;;;14.35;3.30;;;;;;;9.20;42.96;97535.78;5074769;28;20524;-46
2023/02/26 00:30:32;;;;;;;8.73;2.17;;;;;;;9.16;42.48;97534.59;5073493;28;20028;-47
2023/02/26 00:33:17;;;;;;;16.55;3.17;;;;;;;9.15;42.72;97543.47;5091313;28;20025;-46
2023/02/26 00:35:44;;;;;;;21.42;13.25;;;;;;;9.17;43.38;97540.63;5095201;28;20035;-46
2023/02/26 00:38:33;;;;;;;6.78;3.20;;;;;;;9.10;43.02;97542.53;5075994;28;20116;-46
2023/02/26 00:41:02;;;;;;;6.18;2.30;;;;;;;8.98;42.94;97542.47;5094839;28;20049;-47
2023/02/26 00:43:29;;;;;;;16.00;3.45;;;;;;;9.25;42.54;97542.16;5073516;28;20025;-46
2023/02/26 00:46:50;;;;;;;11.77;2.50;;;;;;;9.32;42.35;97548.13;5087341;28;20455;-46
2023/02/26 00:49:49;;;;;;;7.40;3.17;;;;;;;9.36;41.82;97552.69;5073050;28;20498;-46
2023/02/26 00:53:01;;;;;;;14.20;7.85;;;;;;;9.29;41.99;97553.78;5073066;28;20032;-46
2023/02/26 00:55:32;;;;;;;12.45;2.97;;;;;;;8.98;42.08;97556.34;5087655;28;20028;-46
2023/02/26 00:58:14;;;;;;;12.95;3.20;;;;;;;8.73;42.76;97559.03;5094561;28;20031;-47
2023/02/26 01:00:42;;;;;;;11.23;2.80;;;;;;;8.67;43.37;97552.06;5094411;28;20016;-46
2023/02/26 01:03:24;;;;;;;11.07;3.03;;;;;;;8.68;44.13;97555.47;5094476;28;20028;-47
2023/02/26 01:05:50;;;;;;;5.53;2.20;;;;;;;8.64;43.37;97557.69;5101759;28;20052;-46
2023/02/26 01:08:57;;;;;;;7.18;2.92;;;;;;;8.53;43.50;97551.38;5113421;28;20031;-46
2023/02/26 01:11:35;;;;;;;7.32;2.95;;;;;;;8.48;44.40;97558.25;5096432;28;20035;-47
2023/02/26 01:14:25;;;;;;;6.88;2.67;;;;;;;8.36;43.36;97548.44;5096235;28;20108;-46
2023/02/26 01:17:22;;;;;;;6.28;2.42;;;;;;;8.31;44.32;97553.53;5114541;28;20032;-47
2023/02/26 01:20:26;;;;;;;12.23;2.92;;;;;;;8.24;44.04;97544.94;5114366;28;20031;-48
2023/02/26 01:23:14;;;;;;;6.63;2.20;;;;;;;8.07;43.97;97543.84;5113964;28;20493;-46
2023/02/26 01:26:13;;;;;;;8.80;2.60;;;;;;;8.18;44.30;97551.00;5114322;28;20498;-46
2023/02/26 01:28:40;;;;;;;6.93;2.70;;;;;;;8.35;44.20;97538.19;5114620;28;20031;-46
2023/02/26 01:31:40;;;;;;;5.55;2.80;;;;;;;8.42;43.90;97538.97;5095895;28;20024;-46
2023/02/26 01:34:37;;;;;;;10.82;2.42;;;;;;;8.34;43.88;97541.84;5112880;28;20032;-46
2023/02/26 01:37:27;;;;;;;6.50;2.80;;;;;;;8.20;44.30;97541.94;5114143;28;20027;-46
2023/02/26 01:41:01;;;;;;;9.02;2.90;;;;;;;8.02;44.05;97530.63;5114137;28;20501;-47
2023/02/26 01:43:52;;;;;;;7.00;2.45;;;;;;;7.78;44.02;97531.16;5114047;28;20020;-46
2023/02/26 01:46:50;;;;;;;9.30;3.35;;;;;;;7.71;44.61;97527.81;5084905;28;20038;-45
2023/02/26 01:49:23;;;;;;;6.18;2.22;;;;;;;7.71;44.87;97527.03;5113999;28;20044;-46
2023/02/26 01:52:10;;;;;;;9.77;3.22;;;;;;;7.59;45.54;97524.28;5112484;28;20386;-46
2023/02/26 01:54:38;;;;;;;10.40;2.63;;;;;;;7.35;45.50;97526.59;5113883;28;20035;-46
2023/02/26 02:00:09;;;;;;;6.82;2.65;;;;;;;7.19;45.88;97532.28;5113720;28;20031;-46
2023/02/26 02:02:36;;;;;;;6.85;3.03;;;;;;;7.02;45.85;97536.38;5112270;28;20036;-46
2023/02/26 02:05:32;;;;;;;14.73;2.80;;;;;;;6.92;46.04;97535.00;5113518;28;20019;-46
2023/02/26 02:08:02;;;;;;;15.57;3.17;;;;;;;6.92;46.46;97532.41;5094039;28;20088;-46
2023/02/26 02:10:30;;;;;;;6.85;2.97;;;;;;;6.83;46.83;97528.41;5112148;28;20028;-46
2023/02/26 02:13:27;;;;;;;11.50;3.15;;;;;;;6.70;48.03;97531.03;5113483;28;20056;-46
2023/02/26 02:19:45;;;;;;;9.77;3.70;;;;;;;6.70;47.09;97533.63;5113297;28;20043;-46
2023/02/26 02:22:49;;;;;;;8.80;2.97;;;;;;;6.77;47.79;97518.78;5113218;28;20409;-47
2023/02/26 02:25:49;;;;;;;8.60;2.67;;;;;;;6.79;47.51;97512.34;5110012;28;20059;-46
2023/02/26 02:28:52;;;;;;;6.60;2.75;;;;;;;6.73;47.45;97522.81;5113212;28;20058;-47
2023/02/26 02:31:26;;;;;;;8.18;2.45;;;;;;;6.51;47.45;97522.25;5113199;28;20102;-46
2023/02/26 02:34:31;;;;;;;8.30;3.03;;;;;;;6.42;47.74;97528.66;5093969;28;20512;-47
2023/02/26 02:37:40;;;;;;;19.67;15.15;;;;;;;6.22;48.27;97533.88;5113014;28;20027;-47
2023/02/26 02:40:48;;;;;;;22.08;13.80;;;;;;;6.23;48.28;97525.06;5112959;28;20533;-47
2023/02/26 02:43:52;;;;;;;32.38;23.00;;;;;;;6.32;48.28;97526.47;5079863;28;20043;-47
2023/02/26 02:46:36;;;;;;;15.82;6.82;;;;;;;6.19;48.31;97530.66;5112796;28;20037;-47
2023/02/26 02:49:19;;;;;;;10.75;2.80;;;;;;;6.17;49.17;97511.84;5111560;28;20408;-47
2023/02/26 02:52:14;;;;;;;6.88;2.80;;;;;;;6.23;48.88;97527.69;5111411;28;20039;-46
2023/02/26 02:54:56;;;;;;;7.85;2.90;;;;;;;6.10;48.64;97534.50;5097096;28;20032;-47
2023/02/26 02:57:59;;;;;;;6.85;3.05;;;;;;;6.15;49.78;97533.88;5111268;28;20456;-46
2023/02/26 03:00:33;;;;;;;6.20;2.25;;;;;;;6.26;48.46;97520.28;5112456;28;20035;-47
2023/02/26 03:04:02;;;;;;;8.38;2.72;;;;;;;6.16;48.36;97533.69;5094278;28;20497;-47
2023/02/26 03:06:38;;;;;;;10.75;3.38;;;;;;;6.11;48.90;97536.06;5090525;28;20047;-48
2023/02/26 03:09:19;;;;;;;13.88;3.83;;;;;;;6.09;49.83;97540.69;5090829;28;20028;-47
2023/02/26 03:11:54;;;;;;;8.27;3.33;;;;;;;6.16;50.02;97541.50;5086716;28;20032;-47
2023/02/26 03:14:40;;;;;;;9.15;2.67;;;;;;;6.23;49.67;97544.09;5092133;28;20516;-46
2023/02/26 03:18:09;;;;;;;7.93;2.97;;;;;;;6.17;49.53;97544.91;5072552;28;20098;-47
2023/02/26 03:21:12;;;;;;;11.77;3.05;;;;;;;6.19;50.02;97537.69;5091915;28;20038;-46
2023/02/26 03:24:14;;;;;;;9.18;3.25;;;;;;;6.19;49.94;97535.88;5085460;28;20039;-47
2023/02/26 03:27:22;;;;;;;6.13;2.60;;;;;;;6.13;49.69;97539.28;5107477;28;20082;-47
2023/02/26 03:30:37;;;;;;;9.70;2.85;;;;;;;6.07;49.97;97540.09;5090693;28;20034;-46
2023/02/26 03:33:47;;;;;;;11.00;3.22;;;;;;;6.02;49.37;97536.47;5091873;28;20016;-47
2023/02/26 03:36:30;;;;;;;6.25;2.85;;;;;;;5.91;50.14;97536.03;5013065;28;20167;-47
2023/02/26 03:39:39;;;;;;;7.38;2.97;;;;;;;5.85;50.47;97533.44;5029603;28;20025;-47
2023/02/26 03:42:46;;;;;;;13.35;3.28;;;;;;;5.85;50.79;97529.00;5012929;28;20091;-47
2023/02/26 03:45:24;;;;;;;;;;;;;;;5.88;50.50;97531.25;5030476;28;20036;-46
2023/02/26 03:48:29;;;;;;;9.48;4.18;;;;;;;5.75;50.17;97533.81;5016941;28;19923;-47
2023/02/26 03:51:13;;;;;;;13.15;3.40;;;;;;;5.62;50.76;97524.19;5033354;28;20056;-47
2023/02/26 03:54:22;;;;;;;17.38;4.25;;;;;;;5.51;50.88;97529.94;5033377;28;20033;-47
2023/02/26 03:56:57;;;;;;;14.02;3.58;;;;;;;5.37;51.83;97537.75;5033306;28;20545;-47
2023/02/26 03:59:41;;;;;;;8.75;3.75;;;;;;;5.30;51.74;97542.09;5033230;28;20032;-47
2023/02/26 04:02:31;;;;;;;10.27;4.03;;;;;;;5.22;53.02;97526.66;5033109;28;20067;-47
2023/02/26 04:08:10;;;;;;;12.15;3.80;;;;;;;5.25;53.03;97536.69;5113328;28;20086;-46
2023/02/26 04:11:21;;;;;;;11.60;3.97;;;;;;;5.22;52.73;97542.28;5080692;28;20064;-46
2023/02/26 04:16:53;;;;;;;9.45;4.05;;;;;;;5.19;53.21;97534.84;5100566;28;20078;-46
2023/02/26 04:19:43;;;;;;;12.93;4.13;;;;;;;5.27;54.09;97549.47;5115610;28;20023;-47
2023/02/26 04:22:29;;;;;;;6.72;2.95;;;;;;;5.39;52.99;97545.31;5115631;28;20028;-46
2023/02/26 04:25:07;;;;;;;8.77;3.75;;;;;;;5.55;52.45;97546.78;5097167;28;20020;-47
2023/02/26 04:27:54;;;;;;;6.25;2.83;;;;;;;5.58;52.76;97542.00;5115588;28;20027;-47
2023/02/26 04:30:35;;;;;;;7.85;3.33;;;;;;;5.77;52.00;97552.63;5115483;28;20039;-47
2023/02/26 04:33:03;;;;;;;12.80;4.10;;;;;;;5.72;52.74;97565.47;5115485;28;20028;-46
2023/02/26 04:35:33;;;;;;;13.77;4.32;;;;;;;5.55;52.14;97558.00;5113923;28;20043;-47
2023/02/26 04:38:19;;;;;;;10.80;4.18;;;;;;;5.56;53.24;97556.22;5115288;28;20584;-47
2023/02/26 04:40:50;;;;;;;13.25;3.72;;;;;;;5.53;52.19;97562.63;5115243;28;20034;-46
2023/02/26 04:43:34;;;;;;;10.52;3.78;;;;;;;5.51;52.69;97567.19;5113851;28;20047;-47
2023/02/26 04:46:19;;;;;;;7.25;3.67;;;;;;;5.43;52.56;97564.75;5115120;28;20393;-47
2023/02/26 04:48:55;;;;;;;13.50;3.83;;;;;;;5.37;52.61;97560.31;5096833;28;20039;-47
2023/02/26 04:51:38;;;;;;;10.48;3.70;;;;;;;5.28;53.44;97564.91;5113719;28;20092;-47
2023/02/26 04:54:19;;;;;;;9.02;3.90;;;;;;;5.04;53.10;97566.19;5096726;28;20485;-46
2023/02/26 04:57:05;;;;;;;9.10;4.22;;;;;;;4.91;53.51;97559.13;5096110;28;20401;-47
2023/02/26 04:59:52;;;;;;;7.60;4.50;;;;;;;4.89;53.42;97560.31;5114937;28;20082;-47
2023/02/26 05:02:42;;;;;;;14.15;3.45;;;;;;;4.89;53.34;97555.94;5114843;28;20031;-46
2023/02/26 05:05:24;;;;;;;6.60;3.03;;;;;;;4.98;53.47;97551.38;5100189;28;20128;-47
2023/02/26 05:08:01;;;;;;;8.05;3.85;;;;;;;5.06;53.69;97548.59;5092781;28;20198;-47
2023/02/26 05:10:39;;;;;;;12.25;3.90;;;;;;;5.23;53.86;97551.66;5094333;28;20438;-47
2023/02/26 05:13:16;;;;;;;8.27;3.47;;;;;;;5.16;53.63;97553.44;5094207;28;20085;-47
2023/02/26 05:15:46;;;;;;;7.80;3.30;;;;;;;5.16;53.90;97543.06;5094115;28;20023;-46
2023/02/26 05:18:23;;;;;;;7.63;3.20;;;;;;;5.20;53.32;97536.47;5094152;28;20024;-46
2023/02/26 05:21:04;;;;;;;12.85;3.33;;;;;;;5.25;52.98;97534.09;5094208;28;20389;-47
2023/02/26 05:23:40;;;;;;;8.07;3.78;;;;;;;4.96;53.32;97533.34;5093942;28;20388;-47
2023/02/26 05:26:23;;;;;;;7.63;3.63;;;;;;;4.69;53.73;97535.03;5093878;28;20024;-46
2023/02/26 05:28:59;;;;;;;10.63;2.97;;;;;;;4.73;53.84;97533.66;5093945;28;20024;-47
2023/02/26 05:31:38;;;;;;;18.15;4.53;;;;;;;4.74;54.26;97534.44;5093837;28;20032;-47
2023/02/26 05:34:12;;;;;;;19.25;9.57;;;;;;;4.95;54.46;97536.97;5093813;28;20501;-46
2023/02/26 05:36:57;;;;;;;9.70;4.93;;;;;;;5.18;53.69;97538.47;5093738;28;20024;-46
2023/02/26 05:39:26;;;;;;;6.25;3.90;;;;;;;5.29;53.34;97531.88;5093723;28;20070;-47
2023/02/26 05:41:54;;;;;;;8.45;4.15;;;;;;;5.31;53.20;97535.09;5093667;28;20016;-46
2023/02/26 05:44:22;;;;;;;10.48;3.60;;;;;;;5.20;53.57;97539.88;5093617;28;20024;-46
2023/02/26 05:46:49;;;;;;;13.55;3.90;;;;;;;5.12;52.79;97536.63;5093537;28;20035;-46
2023/02/26 05:49:30;;;;;;;10.23;3.63;;;;;;;5.03;53.31;97532.59;5093549;28;20035;-47
2023/02/26 05:52:03;;;;;;;10.02;3.80;;;;;;;4.91;54.06;97532.31;5093440;28;20032;-46
2023/02/26 05:54:46;;;;;;;8.52;4.50;;;;;;;4.77;54.31;97529.66;5093404;28;20386;-47
2023/02/26 05:57:24;;;;;;;12.30;4.10;;;;;;;4.75;53.82;97536.06;5093314;28;20498;-47
2023/02/26 05:59:55;;;;;;;11.85;3.47;;;;;;;4.66;54.73;97542.38;5088355;28;20016;-46
2023/02/26 06:02:21;;;;;;;11.73;4.10;;;;;;;4.51;54.39;97547.69;5093312;28;20024;-45
2023/02/26 06:04:48;;;;;;;10.25;3.75;;;;;;;4.34;54.40;97545.34;5087800;28;20070;-45
2023/02/26 06:07:15;;;;;;;16.15;3.83;;;;;;;4.22;54.71;97536.47;5108663;28;20074;-45
2023/02/26 06:09:43;;;;;;;11.38;3.38;;;;;;;4.19;54.42;97532.47;5093418;28;20020;-45
2023/02/26 06:12:10;;;;;;;7.57;3.38;;;;;;;4.07;54.48;97528.78;5093086;28;20020;-45
2023/02/26 06:14:37;;;;;;;17.65;3.17;;;;;;;4.12;54.84;97531.59;5086091;28;20115;-45
2023/02/26 06:17:05;;;;;;;8.35;3.63;;;;;;;4.14;54.64;97534.81;5092935;28;20026;-45
2023/02/26 06:19:32;;;;;;;6.57;3.28;;;;;;;4.22;54.16;97536.47;5092873;28;20039;-46
2023/02/26 06:22:00;;;;;;;12.75;3.83;;;;;;;4.13;54.51;97540.22;5092898;28;20024;-46
2023/02/26 06:24:26;;;;;;;9.50;3.25;;;;;;;4.25;54.52;97545.72;5092768;28;20547;-45
2023/02/26 06:26:53;;;;;;;7.05;3.28;;;;;;;4.32;53.79;97542.16;5088217;28;20048;-46
2023/02/26 06:29:20;;;;;;;7.13;3.20;;;;;;;4.35;53.87;97539.19;5083579;28;20024;-46
2023/02/26 06:31:48;;;;;;;8.07;3.10;;;;;;;4.40;52.78;97539.41;5092784;28;20051;-45
2023/02/26 06:34:14;;;;;;;5.32;2.90;;;;;;;4.37;52.61;97532.00;5092948;28;20443;-45
2023/02/26 06:36:41;;;;;;;6.30;2.42;;;;;;;4.28;51.83;97540.13;5086314;28;20494;-45
2023/02/26 06:39:11;;;;;;;5.88;2.58;;;;;;;4.15;52.14;97546.81;5108856;28;20038;-45
2023/02/26 06:41:38;;;;;;;5.85;2.47;;;;;;;4.07;52.05;97553.94;5085762;28;20059;-45
2023/02/26 06:44:06;;;;;;;4.38;2.53;;;;;;;4.12;52.18;97547.19;5092511;28;20069;-45
2023/02/26 06:46:33;;;;;;;7.13;3.10;;;;;;;4.03;51.76;97539.75;5092302;28;20023;-45
2023/02/26 06:48:59;;;;;;;8.00;2.65;;;;;;;3.93;51.76;97556.41;5088660;28;20478;-45
2023/02/26 06:51:26;;;;;;;6.65;3.72;;;;;;;3.91;51.90;97553.19;5092407;28;20035;-45
2023/02/26 06:53:53;;;;;;;9.65;3.42;;;;;;;3.96;51.58;97543.09;5087707;28;20073;-45
2023/02/26 06:56:20;;;;;;;12.02;2.53;;;;;;;3.96;51.17;97542.25;5092268;28;20034;-45
2023/02/26 06:58:47;;;;;;;6.55;2.15;;;;;;;3.88;51.14;97563.16;5092260;28;20035;-45
2023/02/26 07:01:16;;;;;;;4.55;2.45;;;;;;;3.85;51.01;97551.34;5090455;28;20532;-44
2023/02/26 07:03:42;;;;;;;6.00;2.38;;;;;;;3.87;50.95;97556.38;5086083;28;20372;-45
2023/02/26 07:06:11;;;;;;;7.03;2.10;;;;;;;3.96;51.28;97558.66;5094300;28;20024;-45
2023/02/26 07:08:39;;;;;;;6.05;2.10;;;;;;;4.38;50.59;97556.97;5112575;28;20027;-45
2023/02/26 07:11:07;;;;;;;5.32;2.10;;;;;;;5.06;48.25;97558.22;5094152;28;20038;-45
2023/02/26 07:13:36;;;;;;;5.72;2.38;;;;;;;5.19;47.72;97558.25;5112410;28;20030;-45
2023/02/26 07:16:06;;;;;;;6.05;2.55;;;;;;;5.31;47.67;97559.34;5111039;28;20039;-45
2023/02/26 07:18:36;;;;;;;173.13;132.23;;;;;;;5.19;45.99;97558.25;5112267;28;20016;-45
2023/02/26 07:21:19;;;;;;;31.60;14.98;;;;;;;4.84;47.52;97578.28;5111912;28;20374;-45
2023/02/26 07:23:47;;;;;;;14.32;4.72;;;;;;;5.09;47.50;97560.41;5094061;28;20057;-45
2023/02/26 07:26:16;;;;;;;6.90;2.63;;;;;;;5.34;45.64;97571.94;5094165;28;20020;-45
2023/02/26 07:28:46;;;;;;;4.30;1.92;;;;;;;5.26;46.21;97571.31;5112127;28;20024;-46
2023/02/26 07:31:12;;;;;;;5.03;2.60;;;;;;;4.98;46.23;97583.38;5112257;28;20028;-45
2023/02/26 07:33:38;;;;;;;4.88;2.25;;;;;;;4.70;46.85;97583.38;5112175;28;20020;-45
2023/02/26 07:36:24;;;;;;;6.85;2.65;;;;;;;4.53;47.33;97577.69;5112208;28;20036;-45
2023/02/26 07:38:55;;;;;;;12.10;1.98;;;;;;;4.45;46.89;97585.63;5112129;28;20056;-45
2023/02/26 07:41:27;;;;;;;6.07;2.10;;;;;;;4.33;47.48;97580.13;5112151;28;20032;-44
2023/02/26 07:43:54;;;;;;;3.10;1.83;;;;;;;4.31;47.56;97587.31;5112144;28;20069;-44
2023/02/26 07:46:27;;;;;;;8.02;2.95;;;;;;;5.05;47.98;97580.00;5111953;28;20395;-45
2023/02/26 07:48:52;;;;;;;9.93;2.72;;;;;;;6.09;45.70;97574.56;5110752;28;20020;-45
2023/02/26 07:51:21;;;;;;;3.45;1.80;;;;;;;6.92;43.72;97571.50;5111947;28;20024;-47
2023/02/26 07:54:01;;;;;;;4.00;2.00;;;;;;;7.66;41.92;97556.34;5093767;28;20016;-47
2023/02/26 07:56:47;;;;;;;9.10;2.38;;;;;;;8.34;41.08;97558.31;5112145;28;20118;-45
2023/02/26 07:59:13;;;;;;;6.90;4.32;;;;;;;8.86;39.12;97560.69;5112014;28;20028;-45
2023/02/26 08:01:59;;;;;;;6.35;3.03;;;;;;;9.24;37.48;97544.00;5110558;28;20027;-45
2023/02/26 08:04:28;;;;;;;6.78;2.72;;;;;;;9.28;36.90;97526.03;5112001;28;20158;-45
2023/02/26 08:06:56;;;;;;;6.43;2.35;;;;;;;9.54;35.98;97556.31;5111374;28;20097;-45
2023/02/26 08:09:24;;;;;;;9.38;2.53;;;;;;;9.68;35.33;97522.88;5093827;28;20038;-45
2023/02/26 08:11:51;;;;;;;11.38;2.20;;;;;;;9.65;35.74;97531.97;5112409;28;20370;-45
2023/02/26 08:14:19;;;;;;;9.75;2.58;;;;;;;9.93;35.54;97533.19;5111845;28;20073;-45
2023/02/26 08:16:45;;;;;;;10.73;2.08;;;;;;;10.15;34.75;97530.84;5111780;28;20020;-45
2023/02/26 08:19:13;;;;;;;10.10;2.35;;;;;;;10.24;35.01;97536.56;5111821;28;20508;-45
2023/02/26 08:21:40;;;;;;;6.18;2.08;;;;;;;10.64;34.09;97534.09;5111818;28;20022;-45
2023/02/26 08:24:07;;;;;;;6.78;2.30;;;;;;;10.91;33.04;97523.94;5111708;28;20461;-45
2023/02/26 08:26:40;;;;;;;7.38;1.92;;;;;;;10.54;33.55;97529.44;5111669;28;20024;-45
2023/02/26 08:29:07;;;;;;;4.32;1.80;;;;;;;10.31;33.58;97532.84;5111604;28;20031;-45
2023/02/26 08:31:34;;;;;;;6.57;2.00;;;;;;;10.08;34.54;97535.38;5111715;28;20012;-44
2023/02/26 08:34:01;;;;;;;8.57;2.90;;;;;;;9.88;35.13;97548.78;5114931;28;20089;-45
2023/02/26 08:36:29;;;;;;;9.85;2.63;;;;;;;9.94;35.46;97543.47;5115441;28;20087;-45
2023/02/26 08:38:57;;;;;;;10.45;2.25;;;;;;;9.93;35.50;97554.97;5114090;28;20031;-45
2023/02/26 08:41:27;;;;;;;5.75;2.10;;;;;;;9.94;34.77;97542.66;5096969;28;20047;-45
2023/02/26 08:43:55;;;;;;;5.57;2.60;;;;;;;10.25;34.32;97538.97;5115239;28;20020;-45
2023/02/26 08:46:21;;;;;;;4.22;2.30;;;;;;;10.39;34.29;97540.38;5115131;28;20016;-45
2023/02/26 08:49:07;;;;;;;3.95;2.20;;;;;;;10.79;34.53;97533.63;5115212;28;20088;-46
2023/02/26 08:51:33;;;;;;;;;;;;;;;11.53;32.65;97525.09;5115578;28;20016;-45
2023/02/26 08:53:59;;;;;;;4.15;1.73;;;;;;;11.79;31.31;97508.78;5115425;28;19984;-45
2023/02/26 08:56:27;;;;;;;4.53;1.98;;;;;;;12.16;31.37;97521.50;5114825;28;20508;-46
2023/02/26 08:58:53;;;;;;;5.43;1.90;;;;;;;12.64;31.42;97542.22;5114841;28;20024;-45
2023/02/26 09:01:20;;;;;;;10.63;2.08;;;;;;;13.22;30.80;97554.03;5114926;28;20055;-46
2023/02/26 09:03:48;;;;;;;11.88;2.35;;;;;;;13.69;28.86;97536.91;5096521;28;20400;-46
2023/02/26 09:06:16;;;;;;;6.25;2.25;;;;;;;13.86;28.96;97545.50;5113079;28;20028;-46
2023/02/26 09:08:43;;;;;;;5.57;1.80;;;;;;;14.53;28.38;97530.22;5114811;28;20046;-45
2023/02/26 09:11:10;;;;;;;12.30;2.35;;;;;;;14.50;26.72;97506.97;5113402;28;20035;-45
2023/02/26 09:13:37;;;;;;;7.72;2.70;;;;;;;14.15;26.96;97524.16;5114692;28;20055;-45
2023/02/26 09:16:06;;;;;;;8.35;2.25;;;;;;;13.76;27.44;97562.03;5113280;28;20084;-45
2023/02/26 09:18:32;;;;;;;7.28;2.22;;;;;;;13.66;27.54;97551.41;5114547;28;20019;-45
2023/02/26 09:20:59;;;;;;;4.70;2.20;;;;;;;13.57;28.27;97545.75;5114500;28;20020;-45
2023/02/26 09:23:26;;;;;;;7.72;2.22;;;;;;;13.78;27.68;97546.78;5114536;28;20417;-45
2023/02/26 09:25:54;;;;;;;5.60;1.95;;;;;;;14.02;27.33;97570.19;5114385;28;20026;-46
2023/02/26 09:28:23;;;;;;;8.48;2.10;;;;;;;14.26;26.92;97548.75;5114416;28;20150;-45
2023/02/26 09:30:54;;;;;;;4.47;1.83;;;;;;;14.36;27.14;97556.75;5114324;28;20031;-45
2023/02/26 09:33:22;;;;;;;9.85;3.38;;;;;;;14.67;26.98;97560.44;5112999;28;20508;-46
2023/02/26 09:35:51;;;;;;;4.22;1.75;;;;;;;15.13;26.04;97558.06;5114179;28;20049;-45
2023/02/26 09:38:19;;;;;;;5.45;1.67;;;;;;;15.37;25.87;97558.44;5114154;28;20501;-45
2023/02/26 09:41:08;;;;;;;3.85;1.90;;;;;;;15.40;25.13;97559.75;5114171;28;20030;-46
2023/02/26 09:43:54;;;;;;;8.48;2.28;;;;;;;14.95;25.89;97545.28;5113390;28;20043;-45
2023/02/26 09:46:49;;;;;;;6.82;2.00;;;;;;;15.00;25.82;97547.16;5113939;28;20016;-45
2023/02/26 09:49:26;;;;;;;8.23;1.60;;;;;;;15.24;25.74;97553.59;5113949;28;20404;-45
2023/02/26 09:52:18;;;;;;;7.03;2.35;;;;;;;15.35;25.06;97551.78;5113985;28;20028;-45
2023/02/26 09:54:52;;;;;;;3.25;1.75;;;;;;;15.35;25.24;97538.56;5113884;28;20091;-46
2023/02/26 09:57:36;;;;;;;2.35;1.55;;;;;;;15.34;24.51;97539.63;5113839;28;20077;-46
2023/02/26 10:00:48;;;;;;;6.35;1.48;;;;;;;15.08;24.72;97544.81;5113775;28;20028;-45
2023/02/26 10:03:49;;;;;;;7.57;1.92;;;;;;;15.09;25.26;97545.59;5084227;28;20066;-46
2023/02/26 10:06:48;;;;;;;9.18;3.38;;;;;;;15.40;24.69;97543.88;5113377;28;20077;-46
2023/02/26 10:09:37;;;;;;;4.30;2.05;;;;;;;15.51;24.81;97539.41;5113515;28;20031;-46
2023/02/26 10:12:09;;;;;;;7.03;1.98;;;;;;;15.38;24.49;97549.44;5095183;28;20097;-45
2023/02/26 10:15:08;;;;;;;7.57;2.65;;;;;;;15.34;25.09;97527.22;5112130;28;20032;-45
2023/02/26 10:17:49;;;;;;;6.40;1.73;;;;;;;15.61;23.93;97542.09;5113488;28;20129;-45
2023/02/26 10:20:45;;;;;;;9.10;1.80;;;;;;;15.44;23.63;97521.16;5113317;28;20452;-45
2023/02/26 10:23:48;;;;;;;5.30;2.08;;;;;;;15.00;23.91;97505.66;5113388;28;20080;-47
2023/02/26 10:26:30;;;;;;;4.63;1.88;;;;;;;14.74;24.54;97515.31;5113223;28;20019;-45
2023/02/26 10:29:35;;;;;;;8.48;1.75;;;;;;;14.49;24.12;97522.00;5113326;28;20035;-45
2023/02/26 10:32:38;;;;;;;5.60;1.77;;;;;;;14.45;24.94;97531.50;5113233;28;20098;-46
2023/02/26 10:35:26;;;;;;;7.43;1.77;;;;;;;14.51;24.66;97525.19;5113175;28;20035;-45
2023/02/26 10:37:58;;;;;;;10.02;1.70;;;;;;;14.47;24.10;97520.69;5113009;28;20027;-46
2023/02/26 10:40:35;;;;;;;9.32;2.28;;;;;;;14.51;24.85;97500.66;5112910;28;20153;-46
2023/02/26 10:43:35;;;;;;;8.57;2.15;;;;;;;14.41;24.25;97511.94;5113015;28;20104;-45
2023/02/26 10:46:25;;;;;;;6.93;1.80;;;;;;;14.56;23.75;97498.84;5081810;28;20123;-45
2023/02/26 10:49:22;;;;;;;11.30;1.70;;;;;;;13.13;24.65;97514.13;5112913;28;20104;-45
2023/02/26 10:51:51;;;;;;;8.30;1.83;;;;;;;11.69;26.21;97534.06;5112862;28;20130;-45
2023/02/26 10:58:20;;;;;;;5.13;1.60;;;;;;;12.67;24.63;97525.91;5112128;28;20038;-46
2023/02/26 11:00:52;;;;;;;10.50;1.88;;;;;;;11.54;26.69;97526.72;5112618;28;20020;-45
2023/02/26 11:03:43;;;;;;;7.25;1.42;;;;;;;10.92;26.68;97538.63;5112617;28;20130;-45
2023/02/26 11:06:32;;;;;;;5.80;1.42;;;;;;;10.19;27.50;97542.47;5112475;28;20016;-45
2023/02/26 11:09:01;;;;;;;5.00;1.55;;;;;;;9.71;28.37;97525.06;5112526;28;20043;-45
2023/02/26 11:11:48;;;;;;;6.45;1.75;;;;;;;9.29;28.88;97541.50;5112463;28;20039;-45
2023/02/26 11:14:15;;;;;;;14.98;1.63;;;;;;;8.97;29.22;97548.72;5112418;28;20027;-45
2023/02/26 11:17:05;;;;;;;;;;;;;;;;;;;;;
2023/02/26 11:19:48;;;;;;;5.68;1.45;;;;;;;8.82;29.94;97536.00;5112572;28;20032;-45
2023/02/26 11:22:16;;;;;;;6.90;1.90;;;;;;;9.16;29.88;97552.13;5112346;28;20023;-45
2023/02/26 11:24:46;;;;;;;8.93;1.38;;;;;;;8.94;29.83;97557.00;5112256;28;20125;-45
2023/02/26 11:27:18;;;;;;;4.75;1.50;;;;;;;8.72;30.22;97549.56;5112295;28;20077;-45
2023/02/26 11:30:11;;;;;;;6.95;1.63;;;;;;;9.18;30.03;97558.75;5093752;28;20039;-45
2023/02/26 11:32:38;;;;;;;7.60;5.00;;;;;;;9.86;28.99;97535.09;5112314;28;20028;-45
2023/02/26 11:35:09;;;;;;;6.68;2.15;;;;;;;9.90;28.40;97523.16;5112157;28;20028;-45
2023/02/26 11:37:39;;;;;;;6.22;1.80;;;;;;;9.34;28.86;97520.69;5112209;28;20016;-45
2023/02/26 11:40:33;;;;;;;12.23;1.88;;;;;;;9.03;29.50;97521.66;5110805;28;20073;-44
2023/02/26 11:43:35;;;;;;;4.28;1.60;;;;;;;9.79;28.33;97550.94;5112194;28;20023;-45
2023/02/26 11:46:22;;;;;;;7.55;1.40;;;;;;;10.11;28.75;97548.84;5112032;28;20034;-45
2023/02/26 11:48:50;;;;;;;6.22;1.52;;;;;;;10.20;28.64;97565.03;5112069;28;20051;-45
2023/02/26 11:51:42;;;;;;;3.55;1.70;;;;;;;10.20;28.09;97552.75;5090772;28;20043;-45
2023/02/26 11:54:39;;;;;;;5.03;1.50;;;;;;;10.20;28.58;97550.13;5112085;28;20130;-45
2023/02/26 11:57:43;;;;;;;2.15;1.23;;;;;;;10.01;28.39;97543.34;5111985;28;20442;-46
2023/02/26 12:00:38;;;;;;;5.13;1.30;;;;;;;9.66;28.81;97546.69;5112024;28;20106;-45
2023/02/26 12:03:40;;;;;;;3.97;1.40;;;;;;;9.60;29.60;97550.19;5110931;28;20106;-46
2023/02/26 12:06:29;;;;;;;6.43;1.52;;;;;;;9.59;29.34;97506.66;5112559;28;20042;-45
2023/02/26 12:09:33;;;;;;;6.43;2.17;;;;;;;9.50;29.34;97529.75;5114696;28;20067;-46
2023/02/26 12:12:49;;;;;;;2.35;1.33;;;;;;;9.47;29.32;97524.97;5115819;28;20031;-45
2023/02/26 12:15:36;;;;;;;8.35;1.60;;;;;;;9.42;29.18;97514.38;5115796;28;20080;-45
2023/02/26 12:18:32;;;;;;;13.88;1.50;;;;;;;9.33;28.54;97505.22;5097472;28;20043;-47
2023/02/26 12:21:38;;;;;;;9.20;1.60;;;;;;;8.96;29.21;97524.38;5097340;28;20382;-45
2023/02/26 12:24:43;;;;;;;11.07;1.45;;;;;;;8.85;29.11;97511.22;5115620;28;20020;-45
2023/02/26 12:27:26;;;;;;;8.18;1.70;;;;;;;8.85;30.15;97540.00;5115602;28;20027;-45
2023/02/26 12:30:07;;;;;;;5.57;1.42;;;;;;;9.23;29.25;97502.31;5115656;28;20024;-45
2023/02/26 12:32:54;;;;;;;3.53;1.17;;;;;;;9.64;28.25;97501.56;5115562;28;20042;-45
2023/02/26 12:35:58;;;;;;;9.93;1.45;;;;;;;9.56;28.06;97468.63;5115476;28;20106;-45
2023/02/26 12:39:03;;;;;;;7.85;1.83;;;;;;;9.66;28.08;97493.47;5110538;28;20040;-46
2023/02/26 12:42:10;;;;;;;4.65;1.75;;;;;;;9.48;28.06;97466.34;5115303;28;20027;-46
2023/02/26 12:44:59;;;;;;;8.85;1.70;;;;;;;9.07;28.88;97493.25;5113858;28;20054;-45
2023/02/26 12:47:48;;;;;;;9.10;1.63;;;;;;;8.86;29.25;97499.75;5115265;28;20039;-44
2023/02/26 12:50:37;;;;;;;9.20;1.20;;;;;;;8.74;29.35;97486.59;5115201;28;20027;-45
2023/02/26 12:53:30;;;;;;;15.68;1.50;;;;;;;8.65;29.44;97477.41;5115099;28;20020;-45
2023/02/26 12:56:48;;;;;;;22.08;1.52;;;;;;;8.40;29.15;97513.03;5101237;28;20100;-45
2023/02/26 12:59:41;;;;;;;8.75;1.75;;;;;;;8.18;29.92;97520.44;5097408;28;20132;-46